createdAt,value
2019-03-18T00:10:44.729Z,94.42
2019-03-18T00:32:54.155Z,94.75
2019-03-18T00:43:51.343Z,94.83
2019-03-18T00:54:52.857Z,94.98
2019-03-18T01:00:11.631Z,94.98
2019-03-18T01:22:13.979Z,94.87
2019-03-18T01:57:57.634Z,95.04
2019-03-18T02:27:37.187Z,94.44
2019-03-18T02:32:58.416Z,94.33
2019-03-18T02:49:29.169Z,94.49
2019-03-18T03:00:23.979Z,94.18
2019-03-18T03:17:01.476Z,93.92
2019-03-18T03:22:19.996Z,93.74
2019-03-18T03:27:40.058Z,94.61
2019-03-18T03:32:59.383Z,96.32
2019-03-18T03:38:19.521Z,97.35
2019-03-18T03:43:39.607Z,98.78
2019-03-18T03:48:58.741Z,99.83
2019-03-18T03:54:17.402Z,100.00
2019-03-18T03:59:43.061Z,100.00
2019-03-18T04:05:01.692Z,100.00
2019-03-18T04:10:25.553Z,100.00
2019-03-18T04:15:45.330Z,100.00
2019-03-18T04:21:05.360Z,100.00
2019-03-18T04:26:29.266Z,100.00
2019-03-18T04:31:45.659Z,100.00
2019-03-18T04:37:25.321Z,100.00
2019-03-18T04:42:44.920Z,100.00
2019-03-18T04:48:05.092Z,100.00
2019-03-18T04:53:28.698Z,100.00
2019-03-18T04:58:48.876Z,100.00
2019-03-18T05:04:09.467Z,100.00
2019-03-18T05:14:55.293Z,100.00
2019-03-18T05:20:13.938Z,100.00
2019-03-18T05:25:51.075Z,100.00
2019-03-18T05:31:09.706Z,100.00
2019-03-18T05:36:28.854Z,100.00
2019-03-18T05:41:48.004Z,100.00
2019-03-18T05:47:08.269Z,100.00
2019-03-18T05:52:30.351Z,100.00
2019-03-18T05:57:50.048Z,100.00
2019-03-18T06:08:35.966Z,100.00
2019-03-18T06:13:56.642Z,100.00
2019-03-18T06:19:16.961Z,100.00
2019-03-18T06:24:37.942Z,100.00
2019-03-18T06:29:58.542Z,100.00
2019-03-18T06:35:20.403Z,100.00
2019-03-18T06:40:39.092Z,100.00
2019-03-18T06:45:57.663Z,100.00
2019-03-18T06:51:16.279Z,100.00
2019-03-18T06:56:35.360Z,100.00
2019-03-18T07:02:13.313Z,99.85
2019-03-18T07:07:31.980Z,100.00
2019-03-18T07:12:52.236Z,99.92
2019-03-18T07:18:18.336Z,99.60
2019-03-18T07:23:31.193Z,96.01
2019-03-18T07:28:52.269Z,92.17
2019-03-18T07:34:12.425Z,92.33
2019-03-18T07:56:33.360Z,83.24
2019-03-18T08:13:11.415Z,79.32
2019-03-18T08:54:43.172Z,87.14
2019-03-18T09:00:01.738Z,88.22
2019-03-18T09:10:58.637Z,84.26
2019-03-18T09:39:33.239Z,79.62
2019-03-18T09:44:57.743Z,79.19
2019-03-18T10:07:23.800Z,73.80
2019-03-18T10:18:31.841Z,72.85
2019-03-18T10:59:22.310Z,71.98
2019-03-18T11:04:41.405Z,73.42
2019-03-18T11:32:29.321Z,72.39
2019-03-18T11:49:00.623Z,62.67
2019-03-18T11:54:24.825Z,61.17
2019-03-18T12:10:57.488Z,67.13
2019-03-18T12:16:16.594Z,65.52
2019-03-18T12:38:38.262Z,67.21
2019-03-18T12:49:34.683Z,58.39
2019-03-18T13:00:35.414Z,59.26
2019-03-18T13:05:57.056Z,58.32
2019-03-18T13:16:54.133Z,58.58
2019-03-18T13:22:14.307Z,58.77
2019-03-18T13:27:32.914Z,57.66
2019-03-18T13:32:54.091Z,60.62
2019-03-18T13:38:33.669Z,62.27
2019-03-18T13:43:52.051Z,61.24
2019-03-18T13:49:10.658Z,60.07
2019-03-18T13:54:32.236Z,56.63
2019-03-18T13:59:50.814Z,57.43
2019-03-18T14:05:34.916Z,57.37
2019-03-18T14:16:34.036Z,57.70
2019-03-18T14:27:19.662Z,55.51
2019-03-18T14:32:38.984Z,57.38
2019-03-18T14:37:59.118Z,56.25
2019-03-18T14:43:17.713Z,54.41
2019-03-18T14:48:37.833Z,55.26
2019-03-18T14:54:01.634Z,57.01
2019-03-18T14:59:21.761Z,55.69
2019-03-18T15:04:40.187Z,53.65
2019-03-18T15:10:03.284Z,53.85
2019-03-18T15:15:23.204Z,53.67
2019-03-18T15:20:41.816Z,54.39
2019-03-18T15:26:00.464Z,56.46
2019-03-18T15:31:19.025Z,57.87
2019-03-18T15:36:43.852Z,56.13
2019-03-18T15:42:02.473Z,58.48
2019-03-18T15:47:22.118Z,58.99
2019-03-18T15:52:41.290Z,57.20
2019-03-18T15:58:20.134Z,58.15
2019-03-18T16:03:40.265Z,62.49
2019-03-18T16:09:00.600Z,64.66
2019-03-18T16:14:19.440Z,64.54
2019-03-18T16:19:39.285Z,63.95
2019-03-18T16:24:59.381Z,62.02
2019-03-18T16:30:22.710Z,61.54
2019-03-18T16:35:43.681Z,62.06
2019-03-18T16:41:02.865Z,63.88
2019-03-18T16:46:24.523Z,64.37
2019-03-18T16:51:44.181Z,64.13
2019-03-18T16:57:05.563Z,64.23
2019-03-18T17:02:24.430Z,65.85
2019-03-18T17:07:44.385Z,66.28
2019-03-18T17:13:03.007Z,67.01
2019-03-18T17:18:22.038Z,65.99
2019-03-18T17:23:40.613Z,67.21
2019-03-18T17:29:06.296Z,67.20
2019-03-18T17:34:24.822Z,68.55
2019-03-18T17:39:44.466Z,68.06
2019-03-18T17:45:05.977Z,69.34
2019-03-18T17:50:34.458Z,70.68
2019-03-18T17:55:58.365Z,71.59
2019-03-18T18:01:18.157Z,71.03
2019-03-18T18:06:43.753Z,69.08
2019-03-18T18:12:02.475Z,71.12
2019-03-18T18:17:24.607Z,70.66
2019-03-18T18:28:16.812Z,72.67
2019-03-18T18:33:43.705Z,73.15
2019-03-18T18:39:02.717Z,74.21
2019-03-18T18:49:55.762Z,74.78
2019-03-18T19:11:53.621Z,73.36
2019-03-18T19:24:37.652Z,75.50
2019-03-18T19:35:34.700Z,78.28
2019-03-18T19:40:54.489Z,76.37
2019-03-18T19:46:18.109Z,76.22
2019-03-18T20:02:40.740Z,74.23
2019-03-18T20:36:17.571Z,79.78
2019-03-18T20:41:39.156Z,81.58
2019-03-18T20:46:57.799Z,83.12
2019-03-18T20:52:26.641Z,85.08
2019-03-18T20:57:49.346Z,87.21
2019-03-18T21:08:43.510Z,87.39
2019-03-18T21:19:38.717Z,89.42
2019-03-18T21:25:15.252Z,90.32
2019-03-18T21:31:00.761Z,89.98
2019-03-18T21:36:38.234Z,91.58
2019-03-18T21:53:00.003Z,92.56
2019-03-18T22:03:55.708Z,93.45
2019-03-18T22:14:35.034Z,95.77
2019-03-18T22:19:53.587Z,95.78
2019-03-18T22:25:13.383Z,95.67
2019-03-18T22:36:35.087Z,96.58
2019-03-18T22:41:57.366Z,97.30
2019-03-18T22:47:16.017Z,97.96
2019-03-18T22:52:34.787Z,98.23
2019-03-18T22:57:56.114Z,98.20
2019-03-18T23:03:14.918Z,98.36
2019-03-18T23:08:35.038Z,98.91
2019-03-18T23:13:54.793Z,99.34
2019-03-18T23:19:13.723Z,99.70
2019-03-18T23:30:04.970Z,100.00
2019-03-18T23:35:27.003Z,100.00
2019-03-18T23:40:47.039Z,100.00
2019-03-18T23:46:07.159Z,100.00
2019-03-18T23:56:43.631Z,100.00
